sensor_id;sensor_type;location;lat;lon;timestamp;temperature;humidity
43995;DHT22;51687;52.160;5.298;2022-08-18T00:01:10;25.50;61.10
43995;DHT22;51687;52.160;5.298;2022-08-18T00:03:40;25.50;61.00
43995;DHT22;51687;52.160;5.298;2022-08-18T00:06:24;25.50;61.00
43995;DHT22;51687;52.160;5.298;2022-08-18T00:08:55;25.50;61.00
43995;DHT22;51687;52.160;5.298;2022-08-18T00:11:22;25.50;60.90
43995;DHT22;51687;52.160;5.298;2022-08-18T00:13:49;25.50;61.10
43995;DHT22;51687;52.160;5.298;2022-08-18T00:16:16;25.50;61.00
43995;DHT22;51687;52.160;5.298;2022-08-18T00:18:42;25.50;61.00
43995;DHT22;51687;52.160;5.298;2022-08-18T00:21:09;25.50;61.00
43995;DHT22;51687;52.160;5.298;2022-08-18T00:23:36;25.50;61.00
43995;DHT22;51687;52.160;5.298;2022-08-18T00:26:04;25.50;61.10
43995;DHT22;51687;52.160;5.298;2022-08-18T00:28:31;25.50;61.00
43995;DHT22;51687;52.160;5.298;2022-08-18T00:30:57;25.50;60.90
43995;DHT22;51687;52.160;5.298;2022-08-18T00:33:24;25.50;60.90
43995;DHT22;51687;52.160;5.298;2022-08-18T00:35:51;25.50;60.80
43995;DHT22;51687;52.160;5.298;2022-08-18T00:38:18;25.50;61.00
43995;DHT22;51687;52.160;5.298;2022-08-18T00:40:52;25.50;60.90
43995;DHT22;51687;52.160;5.298;2022-08-18T00:43:28;25.50;60.80
43995;DHT22;51687;52.160;5.298;2022-08-18T00:45:58;25.50;60.80
43995;DHT22;51687;52.160;5.298;2022-08-18T00:48:27;25.50;60.80
43995;DHT22;51687;52.160;5.298;2022-08-18T00:51:01;25.50;60.80
43995;DHT22;51687;52.160;5.298;2022-08-18T00:53:49;25.50;60.60
43995;DHT22;51687;52.160;5.298;2022-08-18T00:56:24;25.50;60.60
43995;DHT22;51687;52.160;5.298;2022-08-18T00:59:00;25.50;60.40
43995;DHT22;51687;52.160;5.298;2022-08-18T01:01:30;25.50;60.40
43995;DHT22;51687;52.160;5.298;2022-08-18T01:04:14;25.50;60.10
43995;DHT22;51687;52.160;5.298;2022-08-18T01:06:47;25.40;60.00
43995;DHT22;51687;52.160;5.298;2022-08-18T01:09:17;25.50;60.10
43995;DHT22;51687;52.160;5.298;2022-08-18T01:11:44;25.40;59.80
43995;DHT22;51687;52.160;5.298;2022-08-18T01:14:12;25.40;59.80
43995;DHT22;51687;52.160;5.298;2022-08-18T01:16:42;25.50;59.70
43995;DHT22;51687;52.160;5.298;2022-08-18T01:19:27;25.40;60.00
43995;DHT22;51687;52.160;5.298;2022-08-18T01:22:34;25.40;59.90
43995;DHT22;51687;52.160;5.298;2022-08-18T01:25:05;25.50;59.80
43995;DHT22;51687;52.160;5.298;2022-08-18T01:27:52;25.40;59.80
43995;DHT22;51687;52.160;5.298;2022-08-18T01:30:26;25.40;59.50
43995;DHT22;51687;52.160;5.298;2022-08-18T01:32:53;25.40;59.40
43995;DHT22;51687;52.160;5.298;2022-08-18T01:35:23;25.40;59.40
43995;DHT22;51687;52.160;5.298;2022-08-18T01:37:52;25.40;59.60
43995;DHT22;51687;52.160;5.298;2022-08-18T01:40:22;25.40;59.60
43995;DHT22;51687;52.160;5.298;2022-08-18T01:43:08;25.40;59.20
43995;DHT22;51687;52.160;5.298;2022-08-18T01:45:36;25.40;59.20
43995;DHT22;51687;52.160;5.298;2022-08-18T01:48:03;25.40;59.10
43995;DHT22;51687;52.160;5.298;2022-08-18T01:50:31;25.40;59.10
43995;DHT22;51687;52.160;5.298;2022-08-18T01:53:01;25.40;59.50
43995;DHT22;51687;52.160;5.298;2022-08-18T01:55:32;25.40;59.50
43995;DHT22;51687;52.160;5.298;2022-08-18T01:57:59;25.40;59.50
43995;DHT22;51687;52.160;5.298;2022-08-18T02:00:28;25.40;59.40
43995;DHT22;51687;52.160;5.298;2022-08-18T02:02:55;25.40;59.80
43995;DHT22;51687;52.160;5.298;2022-08-18T02:05:42;25.30;59.40
43995;DHT22;51687;52.160;5.298;2022-08-18T02:08:13;25.30;59.50
43995;DHT22;51687;52.160;5.298;2022-08-18T02:10:41;25.40;59.30
43995;DHT22;51687;52.160;5.298;2022-08-18T02:13:08;25.40;60.40
43995;DHT22;51687;52.160;5.298;2022-08-18T02:15:34;25.30;59.20
43995;DHT22;51687;52.160;5.298;2022-08-18T02:18:01;25.30;59.10
43995;DHT22;51687;52.160;5.298;2022-08-18T02:20:28;25.30;59.10
43995;DHT22;51687;52.160;5.298;2022-08-18T02:22:55;25.30;59.00
43995;DHT22;51687;52.160;5.298;2022-08-18T02:25:24;25.30;59.00
43995;DHT22;51687;52.160;5.298;2022-08-18T02:27:50;25.30;58.90
43995;DHT22;51687;52.160;5.298;2022-08-18T02:30:18;25.30;58.90
43995;DHT22;51687;52.160;5.298;2022-08-18T02:32:45;25.30;59.10
43995;DHT22;51687;52.160;5.298;2022-08-18T02:35:12;25.30;59.00
43995;DHT22;51687;52.160;5.298;2022-08-18T02:37:40;25.30;58.90
43995;DHT22;51687;52.160;5.298;2022-08-18T02:40:09;25.30;59.00
43995;DHT22;51687;52.160;5.298;2022-08-18T02:42:41;25.30;59.10
43995;DHT22;51687;52.160;5.298;2022-08-18T02:45:08;25.30;59.10
43995;DHT22;51687;52.160;5.298;2022-08-18T02:47:35;25.30;59.30
43995;DHT22;51687;52.160;5.298;2022-08-18T02:50:02;25.30;59.40
43995;DHT22;51687;52.160;5.298;2022-08-18T02:52:29;25.30;59.20
43995;DHT22;51687;52.160;5.298;2022-08-18T02:54:59;25.30;59.40
43995;DHT22;51687;52.160;5.298;2022-08-18T02:57:30;25.30;59.40
43995;DHT22;51687;52.160;5.298;2022-08-18T02:59:58;25.30;59.40
43995;DHT22;51687;52.160;5.298;2022-08-18T03:02:25;25.30;59.40
43995;DHT22;51687;52.160;5.298;2022-08-18T03:04:52;25.30;59.80
43995;DHT22;51687;52.160;5.298;2022-08-18T03:07:19;25.30;59.80
43995;DHT22;51687;52.160;5.298;2022-08-18T03:09:46;25.30;59.90
43995;DHT22;51687;52.160;5.298;2022-08-18T03:12:13;25.30;59.80
43995;DHT22;51687;52.160;5.298;2022-08-18T03:14:39;25.30;59.80
43995;DHT22;51687;52.160;5.298;2022-08-18T03:17:07;25.20;59.80
43995;DHT22;51687;52.160;5.298;2022-08-18T03:19:34;25.30;59.80
43995;DHT22;51687;52.160;5.298;2022-08-18T03:22:01;25.20;60.80
43995;DHT22;51687;52.160;5.298;2022-08-18T03:24:30;25.30;59.80
43995;DHT22;51687;52.160;5.298;2022-08-18T03:26:58;25.30;59.90
43995;DHT22;51687;52.160;5.298;2022-08-18T03:29:25;25.20;59.70
43995;DHT22;51687;52.160;5.298;2022-08-18T03:32:01;25.20;59.80
43995;DHT22;51687;52.160;5.298;2022-08-18T03:34:29;25.20;59.80
43995;DHT22;51687;52.160;5.298;2022-08-18T03:36:57;25.20;59.90
43995;DHT22;51687;52.160;5.298;2022-08-18T03:39:25;25.20;59.90
43995;DHT22;51687;52.160;5.298;2022-08-18T03:41:53;25.20;59.80
43995;DHT22;51687;52.160;5.298;2022-08-18T03:44:31;25.20;59.90
43995;DHT22;51687;52.160;5.298;2022-08-18T03:46:58;25.20;59.90
43995;DHT22;51687;52.160;5.298;2022-08-18T03:49:28;25.20;59.90
43995;DHT22;51687;52.160;5.298;2022-08-18T03:51:57;25.20;59.90
43995;DHT22;51687;52.160;5.298;2022-08-18T03:54:27;25.20;59.80
43995;DHT22;51687;52.160;5.298;2022-08-18T03:56:54;25.20;59.90
43995;DHT22;51687;52.160;5.298;2022-08-18T03:59:39;25.20;59.90
43995;DHT22;51687;52.160;5.298;2022-08-18T04:02:09;25.20;59.80
43995;DHT22;51687;52.160;5.298;2022-08-18T04:04:36;25.20;59.80
43995;DHT22;51687;52.160;5.298;2022-08-18T04:07:10;25.20;60.10
43995;DHT22;51687;52.160;5.298;2022-08-18T04:09:37;25.20;59.80
43995;DHT22;51687;52.160;5.298;2022-08-18T04:12:11;25.20;59.90
43995;DHT22;51687;52.160;5.298;2022-08-18T04:14:45;25.20;60.00
43995;DHT22;51687;52.160;5.298;2022-08-18T04:17:14;25.20;60.00
43995;DHT22;51687;52.160;5.298;2022-08-18T04:19:41;25.20;59.90
43995;DHT22;51687;52.160;5.298;2022-08-18T04:22:08;25.20;60.00
43995;DHT22;51687;52.160;5.298;2022-08-18T04:24:42;25.20;60.10
43995;DHT22;51687;52.160;5.298;2022-08-18T04:27:11;25.20;60.00
43995;DHT22;51687;52.160;5.298;2022-08-18T04:29:38;25.20;60.00
43995;DHT22;51687;52.160;5.298;2022-08-18T04:32:04;25.20;60.10
43995;DHT22;51687;52.160;5.298;2022-08-18T04:34:32;25.20;60.10
43995;DHT22;51687;52.160;5.298;2022-08-18T04:36:59;25.20;60.30
43995;DHT22;51687;52.160;5.298;2022-08-18T04:39:28;25.20;60.20
43995;DHT22;51687;52.160;5.298;2022-08-18T04:41:55;25.20;60.20
43995;DHT22;51687;52.160;5.298;2022-08-18T04:44:22;25.20;60.00
43995;DHT22;51687;52.160;5.298;2022-08-18T04:46:51;25.20;60.00
43995;DHT22;51687;52.160;5.298;2022-08-18T04:49:21;25.20;59.80
43995;DHT22;51687;52.160;5.298;2022-08-18T04:51:50;25.20;59.90
43995;DHT22;51687;52.160;5.298;2022-08-18T04:54:55;25.20;59.80
43995;DHT22;51687;52.160;5.298;2022-08-18T04:57:22;25.20;59.70
43995;DHT22;51687;52.160;5.298;2022-08-18T04:59:50;25.20;59.40
43995;DHT22;51687;52.160;5.298;2022-08-18T05:02:20;25.20;59.40
43995;DHT22;51687;52.160;5.298;2022-08-18T05:04:47;25.20;59.40
43995;DHT22;51687;52.160;5.298;2022-08-18T05:07:18;25.20;59.30
43995;DHT22;51687;52.160;5.298;2022-08-18T05:09:45;25.20;59.30
43995;DHT22;51687;52.160;5.298;2022-08-18T05:12:13;25.20;59.40
43995;DHT22;51687;52.160;5.298;2022-08-18T05:14:43;25.20;59.60
43995;DHT22;51687;52.160;5.298;2022-08-18T05:17:11;25.20;59.50
43995;DHT22;51687;52.160;5.298;2022-08-18T05:19:38;25.20;59.40
43995;DHT22;51687;52.160;5.298;2022-08-18T05:22:10;25.20;60.90
43995;DHT22;51687;52.160;5.298;2022-08-18T05:24:41;25.20;59.60
43995;DHT22;51687;52.160;5.298;2022-08-18T05:27:08;25.20;59.60
43995;DHT22;51687;52.160;5.298;2022-08-18T05:29:35;25.20;59.60
43995;DHT22;51687;52.160;5.298;2022-08-18T05:32:12;25.20;59.80
43995;DHT22;51687;52.160;5.298;2022-08-18T05:35:22;25.20;60.00
43995;DHT22;51687;52.160;5.298;2022-08-18T05:40:23;25.20;60.60
43995;DHT22;51687;52.160;5.298;2022-08-18T05:42:53;25.20;60.50
43995;DHT22;51687;52.160;5.298;2022-08-18T05:45:23;25.20;60.60
43995;DHT22;51687;52.160;5.298;2022-08-18T05:47:50;25.20;60.60
43995;DHT22;51687;52.160;5.298;2022-08-18T05:50:19;25.10;60.60
43995;DHT22;51687;52.160;5.298;2022-08-18T05:52:54;25.20;60.70
43995;DHT22;51687;52.160;5.298;2022-08-18T05:55:32;25.20;60.90
43995;DHT22;51687;52.160;5.298;2022-08-18T06:01:05;25.10;61.10
43995;DHT22;51687;52.160;5.298;2022-08-18T06:03:58;25.20;61.40
43995;DHT22;51687;52.160;5.298;2022-08-18T06:06:28;25.20;61.60
43995;DHT22;51687;52.160;5.298;2022-08-18T06:09:16;25.10;61.80
43995;DHT22;51687;52.160;5.298;2022-08-18T06:11:44;25.10;62.00
43995;DHT22;51687;52.160;5.298;2022-08-18T06:14:12;25.10;62.30
43995;DHT22;51687;52.160;5.298;2022-08-18T06:16:58;25.10;62.60
43995;DHT22;51687;52.160;5.298;2022-08-18T06:19:51;25.10;62.70
43995;DHT22;51687;52.160;5.298;2022-08-18T06:22:53;25.10;63.10
43995;DHT22;51687;52.160;5.298;2022-08-18T06:28:15;25.10;63.20
43995;DHT22;51687;52.160;5.298;2022-08-18T06:36:27;25.00;64.30
43995;DHT22;51687;52.160;5.298;2022-08-18T06:41:46;25.00;64.60
43995;DHT22;51687;52.160;5.298;2022-08-18T06:46:53;25.00;65.30
43995;DHT22;51687;52.160;5.298;2022-08-18T06:52:24;25.00;65.30
43995;DHT22;51687;52.160;5.298;2022-08-18T06:54:53;25.00;65.30
43995;DHT22;51687;52.160;5.298;2022-08-18T06:57:27;25.00;65.10
43995;DHT22;51687;52.160;5.298;2022-08-18T07:00:00;25.00;65.20
43995;DHT22;51687;52.160;5.298;2022-08-18T07:03:13;25.00;65.10
43995;DHT22;51687;52.160;5.298;2022-08-18T07:05:35;25.00;65.60
43995;DHT22;51687;52.160;5.298;2022-08-18T07:08:31;25.00;65.80
43995;DHT22;51687;52.160;5.298;2022-08-18T07:13:45;25.00;66.20
43995;DHT22;51687;52.160;5.298;2022-08-18T07:16:33;24.90;66.50
43995;DHT22;51687;52.160;5.298;2022-08-18T07:19:27;24.90;66.90
43995;DHT22;51687;52.160;5.298;2022-08-18T07:22:11;24.90;67.20
43995;DHT22;51687;52.160;5.298;2022-08-18T07:24:41;24.90;67.00
43995;DHT22;51687;52.160;5.298;2022-08-18T07:27:16;24.80;67.20
43995;DHT22;51687;52.160;5.298;2022-08-18T07:30:09;24.70;67.10
43995;DHT22;51687;52.160;5.298;2022-08-18T07:32:44;24.70;66.70
43995;DHT22;51687;52.160;5.298;2022-08-18T07:35:17;24.70;67.90
43995;DHT22;51687;52.160;5.298;2022-08-18T07:37:57;24.70;67.60
43995;DHT22;51687;52.160;5.298;2022-08-18T07:40:40;24.70;67.20
43995;DHT22;51687;52.160;5.298;2022-08-18T07:43:25;24.60;67.90
43995;DHT22;51687;52.160;5.298;2022-08-18T07:45:59;24.70;69.00
43995;DHT22;51687;52.160;5.298;2022-08-18T07:48:31;24.70;68.50
43995;DHT22;51687;52.160;5.298;2022-08-18T07:54:05;24.60;67.90
43995;DHT22;51687;52.160;5.298;2022-08-18T07:59:42;24.60;67.50
43995;DHT22;51687;52.160;5.298;2022-08-18T08:02:25;24.70;65.80
43995;DHT22;51687;52.160;5.298;2022-08-18T08:05:17;24.60;65.60
43995;DHT22;51687;52.160;5.298;2022-08-18T08:08:01;24.70;65.30
43995;DHT22;51687;52.160;5.298;2022-08-18T08:16:36;24.70;65.20
43995;DHT22;51687;52.160;5.298;2022-08-18T08:19:28;24.70;65.40
43995;DHT22;51687;52.160;5.298;2022-08-18T08:22:30;24.80;65.40
43995;DHT22;51687;52.160;5.298;2022-08-18T08:28:05;24.80;66.00
43995;DHT22;51687;52.160;5.298;2022-08-18T08:30:44;24.70;64.30
43995;DHT22;51687;52.160;5.298;2022-08-18T08:33:23;24.70;65.70
43995;DHT22;51687;52.160;5.298;2022-08-18T08:39:08;24.80;67.40
43995;DHT22;51687;52.160;5.298;2022-08-18T08:41:40;24.80;66.30
43995;DHT22;51687;52.160;5.298;2022-08-18T08:44:12;24.80;65.10
43995;DHT22;51687;52.160;5.298;2022-08-18T08:47:06;24.80;65.30
43995;DHT22;51687;52.160;5.298;2022-08-18T08:49:41;24.80;66.80
43995;DHT22;51687;52.160;5.298;2022-08-18T08:52:13;24.80;65.20
43995;DHT22;51687;52.160;5.298;2022-08-18T08:55:11;24.70;66.10
43995;DHT22;51687;52.160;5.298;2022-08-18T08:57:58;24.80;65.20
43995;DHT22;51687;52.160;5.298;2022-08-18T09:00:29;24.80;65.90
43995;DHT22;51687;52.160;5.298;2022-08-18T09:20:05;24.80;66.40
43995;DHT22;51687;52.160;5.298;2022-08-18T09:22:50;24.80;66.70
43995;DHT22;51687;52.160;5.298;2022-08-18T09:42:10;24.70;65.10
43995;DHT22;51687;52.160;5.298;2022-08-18T09:49:55;24.70;65.20
43995;DHT22;51687;52.160;5.298;2022-08-18T09:52:45;24.70;66.20
43995;DHT22;51687;52.160;5.298;2022-08-18T09:57:44;24.80;64.90
43995;DHT22;51687;52.160;5.298;2022-08-18T10:00:28;24.80;65.50
43995;DHT22;51687;52.160;5.298;2022-08-18T10:03:00;24.80;65.30
43995;DHT22;51687;52.160;5.298;2022-08-18T10:05:30;24.80;64.00
43995;DHT22;51687;52.160;5.298;2022-08-18T10:19:33;24.90;64.60
43995;DHT22;51687;52.160;5.298;2022-08-18T10:22:08;24.90;64.40
43995;DHT22;51687;52.160;5.298;2022-08-18T10:25:05;24.90;64.70
43995;DHT22;51687;52.160;5.298;2022-08-18T10:27:52;24.90;64.00
43995;DHT22;51687;52.160;5.298;2022-08-18T10:33:05;25.00;63.30
43995;DHT22;51687;52.160;5.298;2022-08-18T10:35:58;25.00;63.30
43995;DHT22;51687;52.160;5.298;2022-08-18T10:38:37;25.00;63.40
43995;DHT22;51687;52.160;5.298;2022-08-18T10:41:18;25.00;63.40
43995;DHT22;51687;52.160;5.298;2022-08-18T10:43:47;25.00;63.00
43995;DHT22;51687;52.160;5.298;2022-08-18T10:46:28;25.00;63.40
43995;DHT22;51687;52.160;5.298;2022-08-18T10:57:56;25.00;63.90
43995;DHT22;51687;52.160;5.298;2022-08-18T11:06:22;25.10;62.80
43995;DHT22;51687;52.160;5.298;2022-08-18T11:08:58;25.10;64.50
43995;DHT22;51687;52.160;5.298;2022-08-18T11:11:33;25.10;63.30
43995;DHT22;51687;52.160;5.298;2022-08-18T11:19:54;25.20;63.80
43995;DHT22;51687;52.160;5.298;2022-08-18T11:24:59;25.20;63.70
43995;DHT22;51687;52.160;5.298;2022-08-18T11:27:32;25.20;64.00
43995;DHT22;51687;52.160;5.298;2022-08-18T11:30:05;25.10;63.70
43995;DHT22;51687;52.160;5.298;2022-08-18T11:32:35;25.20;64.20
43995;DHT22;51687;52.160;5.298;2022-08-18T11:35:17;25.20;64.00
43995;DHT22;51687;52.160;5.298;2022-08-18T11:37:58;25.20;63.70
43995;DHT22;51687;52.160;5.298;2022-08-18T11:40:39;25.20;63.40
43995;DHT22;51687;52.160;5.298;2022-08-18T11:43:33;25.20;62.80
43995;DHT22;51687;52.160;5.298;2022-08-18T11:46:28;25.20;63.20
43995;DHT22;51687;52.160;5.298;2022-08-18T11:48:59;25.20;62.60
43995;DHT22;51687;52.160;5.298;2022-08-18T11:51:28;25.30;62.70
43995;DHT22;51687;52.160;5.298;2022-08-18T11:54:01;25.20;62.30
43995;DHT22;51687;52.160;5.298;2022-08-18T11:59:47;25.30;61.10
43995;DHT22;51687;52.160;5.298;2022-08-18T12:02:24;25.30;62.40
43995;DHT22;51687;52.160;5.298;2022-08-18T12:04:55;25.30;60.70
43995;DHT22;51687;52.160;5.298;2022-08-18T12:07:32;25.30;61.60
43995;DHT22;51687;52.160;5.298;2022-08-18T12:10:21;25.30;62.10
43995;DHT22;51687;52.160;5.298;2022-08-18T12:12:55;25.30;61.60
43995;DHT22;51687;52.160;5.298;2022-08-18T12:18:10;25.30;61.80
43995;DHT22;51687;52.160;5.298;2022-08-18T12:20:53;25.30;62.50
43995;DHT22;51687;52.160;5.298;2022-08-18T12:23:20;25.30;61.80
43995;DHT22;51687;52.160;5.298;2022-08-18T12:25:47;25.30;61.50
43995;DHT22;51687;52.160;5.298;2022-08-18T12:28:20;25.40;62.70
43995;DHT22;51687;52.160;5.298;2022-08-18T12:30:53;25.40;61.10
43995;DHT22;51687;52.160;5.298;2022-08-18T12:33:41;25.40;60.40
43995;DHT22;51687;52.160;5.298;2022-08-18T12:36:14;25.40;61.80
43995;DHT22;51687;52.160;5.298;2022-08-18T12:38:43;25.50;62.50
43995;DHT22;51687;52.160;5.298;2022-08-18T12:41:17;25.50;61.80
43995;DHT22;51687;52.160;5.298;2022-08-18T12:43:49;25.50;62.70
43995;DHT22;51687;52.160;5.298;2022-08-18T12:46:36;25.40;62.40
43995;DHT22;51687;52.160;5.298;2022-08-18T12:49:16;25.50;62.20
43995;DHT22;51687;52.160;5.298;2022-08-18T12:51:43;25.50;61.80
43995;DHT22;51687;52.160;5.298;2022-08-18T12:54:17;25.50;62.10
43995;DHT22;51687;52.160;5.298;2022-08-18T12:56:47;25.50;62.70
43995;DHT22;51687;52.160;5.298;2022-08-18T12:59:16;25.50;62.60
43995;DHT22;51687;52.160;5.298;2022-08-18T13:01:43;25.50;62.70
43995;DHT22;51687;52.160;5.298;2022-08-18T13:04:11;25.50;62.80
43995;DHT22;51687;52.160;5.298;2022-08-18T13:06:53;25.50;61.70
43995;DHT22;51687;52.160;5.298;2022-08-18T13:09:29;25.50;62.60
43995;DHT22;51687;52.160;5.298;2022-08-18T13:12:16;25.50;62.10
43995;DHT22;51687;52.160;5.298;2022-08-18T13:14:45;25.50;62.00
43995;DHT22;51687;52.160;5.298;2022-08-18T13:17:13;25.50;61.90
43995;DHT22;51687;52.160;5.298;2022-08-18T13:19:59;25.50;62.50
43995;DHT22;51687;52.160;5.298;2022-08-18T13:22:26;25.50;61.00
43995;DHT22;51687;52.160;5.298;2022-08-18T13:25:00;25.60;61.90
43995;DHT22;51687;52.160;5.298;2022-08-18T13:27:29;25.60;61.80
43995;DHT22;51687;52.160;5.298;2022-08-18T13:29:59;25.60;61.70
43995;DHT22;51687;52.160;5.298;2022-08-18T13:32:26;25.60;61.50
43995;DHT22;51687;52.160;5.298;2022-08-18T13:35:05;25.60;61.80
43995;DHT22;51687;52.160;5.298;2022-08-18T13:37:39;25.60;61.30
43995;DHT22;51687;52.160;5.298;2022-08-18T13:40:08;25.60;61.70
43995;DHT22;51687;52.160;5.298;2022-08-18T13:42:43;25.60;62.00
43995;DHT22;51687;52.160;5.298;2022-08-18T13:45:20;25.60;60.80
43995;DHT22;51687;52.160;5.298;2022-08-18T13:47:49;25.70;60.40
43995;DHT22;51687;52.160;5.298;2022-08-18T13:50:17;25.60;60.70
43995;DHT22;51687;52.160;5.298;2022-08-18T13:52:45;25.70;61.10
43995;DHT22;51687;52.160;5.298;2022-08-18T13:55:15;25.70;61.40
43995;DHT22;51687;52.160;5.298;2022-08-18T13:57:43;25.70;61.40
43995;DHT22;51687;52.160;5.298;2022-08-18T14:00:18;25.70;61.60
43995;DHT22;51687;52.160;5.298;2022-08-18T14:02:57;25.70;60.40
43995;DHT22;51687;52.160;5.298;2022-08-18T14:05:29;25.70;61.20
43995;DHT22;51687;52.160;5.298;2022-08-18T14:08:17;25.70;61.50
43995;DHT22;51687;52.160;5.298;2022-08-18T14:10:47;25.70;61.50
43995;DHT22;51687;52.160;5.298;2022-08-18T14:13:17;25.70;61.10
43995;DHT22;51687;52.160;5.298;2022-08-18T14:15:52;25.80;61.80
43995;DHT22;51687;52.160;5.298;2022-08-18T14:18:21;25.70;62.20
43995;DHT22;51687;52.160;5.298;2022-08-18T14:20:57;25.70;62.30
43995;DHT22;51687;52.160;5.298;2022-08-18T14:23:48;25.70;62.00
43995;DHT22;51687;52.160;5.298;2022-08-18T14:26:39;25.70;61.80
43995;DHT22;51687;52.160;5.298;2022-08-18T14:29:17;25.70;62.40
43995;DHT22;51687;52.160;5.298;2022-08-18T14:32:05;25.70;62.10
43995;DHT22;51687;52.160;5.298;2022-08-18T14:34:32;25.70;62.10
43995;DHT22;51687;52.160;5.298;2022-08-18T14:36:59;25.70;61.30
43995;DHT22;51687;52.160;5.298;2022-08-18T14:39:27;25.70;61.70
43995;DHT22;51687;52.160;5.298;2022-08-18T14:41:54;25.70;62.20
43995;DHT22;51687;52.160;5.298;2022-08-18T14:44:23;25.70;61.60
43995;DHT22;51687;52.160;5.298;2022-08-18T14:46:57;25.70;61.60
43995;DHT22;51687;52.160;5.298;2022-08-18T14:49:25;25.70;61.20
43995;DHT22;51687;52.160;5.298;2022-08-18T14:51:58;25.70;61.80
43995;DHT22;51687;52.160;5.298;2022-08-18T14:54:26;25.80;61.10
43995;DHT22;51687;52.160;5.298;2022-08-18T14:56:55;25.70;60.80
43995;DHT22;51687;52.160;5.298;2022-08-18T14:59:22;25.80;59.90
43995;DHT22;51687;52.160;5.298;2022-08-18T15:01:51;25.80;60.20
43995;DHT22;51687;52.160;5.298;2022-08-18T15:04:19;25.80;60.90
43995;DHT22;51687;52.160;5.298;2022-08-18T15:06:47;25.80;60.70
43995;DHT22;51687;52.160;5.298;2022-08-18T15:09:23;25.80;60.40
43995;DHT22;51687;52.160;5.298;2022-08-18T15:11:56;25.80;60.10
43995;DHT22;51687;52.160;5.298;2022-08-18T15:14:28;25.80;60.30
43995;DHT22;51687;52.160;5.298;2022-08-18T15:17:02;25.70;60.40
43995;DHT22;51687;52.160;5.298;2022-08-18T15:19:38;25.80;61.00
43995;DHT22;51687;52.160;5.298;2022-08-18T15:22:25;25.80;61.50
43995;DHT22;51687;52.160;5.298;2022-08-18T15:25:10;25.80;61.40
43995;DHT22;51687;52.160;5.298;2022-08-18T15:27:56;25.70;61.40
43995;DHT22;51687;52.160;5.298;2022-08-18T15:30:24;25.80;62.10
43995;DHT22;51687;52.160;5.298;2022-08-18T15:32:52;25.70;61.10
43995;DHT22;51687;52.160;5.298;2022-08-18T15:35:19;25.80;60.80
43995;DHT22;51687;52.160;5.298;2022-08-18T15:37:47;25.80;61.20
43995;DHT22;51687;52.160;5.298;2022-08-18T15:40:20;25.80;60.50
43995;DHT22;51687;52.160;5.298;2022-08-18T15:43:06;25.80;60.50
43995;DHT22;51687;52.160;5.298;2022-08-18T15:45:37;25.70;60.30
43995;DHT22;51687;52.160;5.298;2022-08-18T15:48:18;25.80;60.10
43995;DHT22;51687;52.160;5.298;2022-08-18T15:50:46;25.80;59.70
43995;DHT22;51687;52.160;5.298;2022-08-18T15:53:19;25.80;60.60
43995;DHT22;51687;52.160;5.298;2022-08-18T15:55:47;25.80;60.60
43995;DHT22;51687;52.160;5.298;2022-08-18T15:58:16;25.80;59.30
43995;DHT22;51687;52.160;5.298;2022-08-18T16:00:48;25.80;59.80
43995;DHT22;51687;52.160;5.298;2022-08-18T16:03:19;25.80;59.30
43995;DHT22;51687;52.160;5.298;2022-08-18T16:05:52;25.80;59.10
43995;DHT22;51687;52.160;5.298;2022-08-18T16:08:23;25.80;58.80
43995;DHT22;51687;52.160;5.298;2022-08-18T16:10:51;25.80;58.60
43995;DHT22;51687;52.160;5.298;2022-08-18T16:13:19;25.80;58.50
43995;DHT22;51687;52.160;5.298;2022-08-18T16:15:46;25.80;58.90
43995;DHT22;51687;52.160;5.298;2022-08-18T16:18:14;25.80;58.60
43995;DHT22;51687;52.160;5.298;2022-08-18T16:20:42;25.80;59.20
43995;DHT22;51687;52.160;5.298;2022-08-18T16:23:10;25.80;58.60
43995;DHT22;51687;52.160;5.298;2022-08-18T16:25:41;25.80;58.70
43995;DHT22;51687;52.160;5.298;2022-08-18T16:28:09;25.80;58.50
43995;DHT22;51687;52.160;5.298;2022-08-18T16:30:38;25.80;58.60
43995;DHT22;51687;52.160;5.298;2022-08-18T16:33:05;25.80;58.70
43995;DHT22;51687;52.160;5.298;2022-08-18T16:35:34;25.80;58.30
43995;DHT22;51687;52.160;5.298;2022-08-18T16:38:06;25.80;58.30
43995;DHT22;51687;52.160;5.298;2022-08-18T16:40:35;25.80;58.20
43995;DHT22;51687;52.160;5.298;2022-08-18T16:43:02;25.80;58.50
43995;DHT22;51687;52.160;5.298;2022-08-18T16:45:29;25.80;58.40
43995;DHT22;51687;52.160;5.298;2022-08-18T16:47:59;25.80;57.90
43995;DHT22;51687;52.160;5.298;2022-08-18T16:50:26;25.80;57.70
43995;DHT22;51687;52.160;5.298;2022-08-18T16:52:53;25.80;58.20
43995;DHT22;51687;52.160;5.298;2022-08-18T16:55:20;25.80;58.20
43995;DHT22;51687;52.160;5.298;2022-08-18T16:57:47;25.80;58.30
43995;DHT22;51687;52.160;5.298;2022-08-18T17:00:33;25.80;57.40
43995;DHT22;51687;52.160;5.298;2022-08-18T17:03:21;25.80;57.20
43995;DHT22;51687;52.160;5.298;2022-08-18T17:06:12;25.90;58.40
43995;DHT22;51687;52.160;5.298;2022-08-18T17:08:40;25.80;58.20
43995;DHT22;51687;52.160;5.298;2022-08-18T17:11:14;25.80;58.40
43995;DHT22;51687;52.160;5.298;2022-08-18T17:13:42;25.80;57.50
43995;DHT22;51687;52.160;5.298;2022-08-18T17:16:10;25.80;57.10
43995;DHT22;51687;52.160;5.298;2022-08-18T17:18:38;25.80;58.10
43995;DHT22;51687;52.160;5.298;2022-08-18T17:21:07;25.80;58.40
43995;DHT22;51687;52.160;5.298;2022-08-18T17:23:34;25.80;58.60
43995;DHT22;51687;52.160;5.298;2022-08-18T17:26:06;25.80;58.90
43995;DHT22;51687;52.160;5.298;2022-08-18T17:28:41;25.80;58.70
43995;DHT22;51687;52.160;5.298;2022-08-18T17:31:19;25.80;58.50
43995;DHT22;51687;52.160;5.298;2022-08-18T17:33:48;25.80;58.40
43995;DHT22;51687;52.160;5.298;2022-08-18T17:36:20;25.80;58.00
43995;DHT22;51687;52.160;5.298;2022-08-18T17:38:53;25.80;57.70
43995;DHT22;51687;52.160;5.298;2022-08-18T17:41:24;25.80;58.10
43995;DHT22;51687;52.160;5.298;2022-08-18T17:43:54;25.80;59.30
43995;DHT22;51687;52.160;5.298;2022-08-18T17:46:23;25.80;59.00
43995;DHT22;51687;52.160;5.298;2022-08-18T17:49:09;25.80;59.30
43995;DHT22;51687;52.160;5.298;2022-08-18T17:51:42;25.80;59.50
43995;DHT22;51687;52.160;5.298;2022-08-18T17:54:38;25.80;59.90
43995;DHT22;51687;52.160;5.298;2022-08-18T17:57:20;25.80;60.00
43995;DHT22;51687;52.160;5.298;2022-08-18T18:00:05;25.80;60.00
43995;DHT22;51687;52.160;5.298;2022-08-18T18:02:35;25.80;60.00
43995;DHT22;51687;52.160;5.298;2022-08-18T18:05:07;25.80;59.80
43995;DHT22;51687;52.160;5.298;2022-08-18T18:07:38;25.80;60.00
43995;DHT22;51687;52.160;5.298;2022-08-18T18:10:12;25.80;59.80
43995;DHT22;51687;52.160;5.298;2022-08-18T18:12:40;25.90;59.90
43995;DHT22;51687;52.160;5.298;2022-08-18T18:15:10;25.80;59.70
43995;DHT22;51687;52.160;5.298;2022-08-18T18:17:39;25.90;59.80